Time;durP1;ratioP1;P1;durP2;ratioP2;P2;SDS_P1;SDS_P2;PMS_P1;PMS_P2;Temp;Humidity;BMP_temperature;BMP_pressure;BME280_temperature;BME280_humidity;BME280_pressure;Samples;Min_cycle;Max_cycle;Signal;HPM_P1;HPM_P2
2022/08/12 00:45:03;;;;;;;;;;;18.70;91.70;;;;;;5084880;28;20139;-66
2022/08/12 00:47:30;;;;;;;;;;;18.70;91.90;;;;;;5084689;28;19988;-66
2022/08/12 00:49:58;;;;;;;;;;;18.60;92.20;;;;;;5084601;28;20089;-65
2022/08/12 00:52:25;;;;;;;;;;;18.60;92.30;;;;;;5084656;28;19920;-66
2022/08/12 00:54:53;;;;;;;;;;;18.50;92.40;;;;;;5084523;28;19983;-66
2022/08/12 00:57:20;;;;;;;;;;;18.50;92.40;;;;;;5084532;28;19935;-66
2022/08/12 00:59:48;;;;;;;;;;;18.50;92.50;;;;;;5084528;28;20174;-67
2022/08/12 01:02:22;;;;;;;;;;;18.40;92.50;;;;;;5084518;28;19987;-66
2022/08/12 01:13:06;;;;;;;;;;;18.10;93.00;;;;;;5084087;28;19939;-66
2022/08/12 01:15:33;;;;;;;;;;;18.00;93.20;;;;;;5084036;28;19921;-66
2022/08/12 01:18:00;;;;;;;;;;;17.90;93.30;;;;;;5083321;28;19959;-65
2022/08/12 01:20:35;;;;;;;;;;;17.90;93.60;;;;;;5083984;28;20120;-66
2022/08/12 01:23:14;;;;;;;;;;;17.80;93.90;;;;;;5083628;28;19920;-66
2022/08/12 01:25:44;;;;;;;;;;;17.80;94.10;;;;;;5083778;28;20153;-65
2022/08/12 01:28:12;;;;;;;;;;;17.70;94.20;;;;;;5083783;28;20286;-67
2022/08/12 01:30:40;;;;;;;;;;;17.60;94.30;;;;;;5083912;28;19951;-66
2022/08/12 01:33:13;;;;;;;;;;;17.60;94.40;;;;;;5083649;28;19921;-66
2022/08/12 01:35:40;;;;;;;;;;;17.60;94.40;;;;;;5083565;28;19927;-66
2022/08/12 01:38:08;;;;;;;;;;;17.50;94.50;;;;;;5083228;28;19984;-66
2022/08/12 01:40:37;;;;;;;;;;;17.50;94.60;;;;;;5083685;28;19921;-66
2022/08/12 01:43:07;;;;;;;;;;;17.40;94.70;;;;;;5083416;28;19927;-66
2022/08/12 01:45:35;;;;;;;;;;;17.40;94.90;;;;;;5083681;28;19956;-66
2022/08/12 01:48:05;;;;;;;;;;;17.30;95.00;;;;;;5083522;28;19956;-66
2022/08/12 01:50:35;;;;;;;;;;;17.30;95.30;;;;;;5083367;28;19920;-66
2022/08/12 01:53:05;;;;;;;;;;;17.20;95.40;;;;;;5083142;28;19983;-66
2022/08/12 01:55:33;;;;;;;;;;;17.10;95.60;;;;;;5083326;28;19928;-65
2022/08/12 01:58:05;;;;;;;;;;;17.10;95.70;;;;;;5083268;28;20269;-66
2022/08/12 02:00:43;;;;;;;;;;;17.10;95.80;;;;;;5083288;28;20016;-66
2022/08/12 02:03:16;;;;;;;;;;;17.00;95.90;;;;;;5083218;28;19927;-65
2022/08/12 02:11:30;;;;;;;;;;;16.90;96.40;;;;;;5083414;28;19923;-66
2022/08/12 02:14:10;;;;;;;;;;;16.80;96.60;;;;;;5083222;28;19960;-66
2022/08/12 02:16:46;;;;;;;;;;;16.80;96.80;;;;;;5083756;28;19928;-65
2022/08/12 02:19:18;;;;;;;;;;;16.70;97.10;;;;;;5083280;28;19956;-66
2022/08/12 02:21:47;;;;;;;;;;;16.70;97.30;;;;;;5083250;28;20124;-66
2022/08/12 02:24:18;;;;;;;;;;;16.60;97.60;;;;;;5082936;28;19921;-66
2022/08/12 02:26:46;;;;;;;;;;;16.50;97.90;;;;;;5083143;28;20247;-66
2022/08/12 02:29:13;;;;;;;;;;;16.50;98.20;;;;;;5083303;28;19991;-66
2022/08/12 02:31:42;;;;;;;;;;;16.50;98.50;;;;;;5083082;28;19963;-65
2022/08/12 02:34:11;;;;;;;;;;;16.40;98.70;;;;;;5082795;28;19966;-66
2022/08/12 02:36:39;;;;;;;;;;;16.30;99.10;;;;;;5083546;28;19966;-66
2022/08/12 02:39:07;;;;;;;;;;;16.30;99.70;;;;;;5083117;28;19963;-66
2022/08/12 02:41:36;;;;;;;;;;;16.30;99.90;;;;;;5083324;28;19956;-66
2022/08/12 02:44:07;;;;;;;;;;;16.20;99.90;;;;;;5082900;28;19984;-66
2022/08/12 02:46:35;;;;;;;;;;;16.20;99.90;;;;;;5083006;28;19955;-66
2022/08/12 02:49:04;;;;;;;;;;;16.20;99.90;;;;;;5082711;28;19920;-66
2022/08/12 02:51:33;;;;;;;;;;;16.10;99.90;;;;;;5082855;28;19924;-66
2022/08/12 02:54:02;;;;;;;;;;;16.10;99.90;;;;;;5082346;28;19955;-66
2022/08/12 02:56:29;;;;;;;;;;;16.00;99.90;;;;;;5082923;28;19920;-66
2022/08/12 02:58:57;;;;;;;;;;;16.00;99.90;;;;;;5082887;28;19921;-66
2022/08/12 03:01:32;;;;;;;;;;;15.90;99.90;;;;;;5082639;28;19927;-66
2022/08/12 03:04:00;;;;;;;;;;;15.90;99.90;;;;;;5082609;28;20181;-66
2022/08/12 03:06:32;;;;;;;;;;;15.90;99.90;;;;;;5082548;28;19948;-65
2022/08/12 03:09:02;;;;;;;;;;;15.80;99.90;;;;;;5082919;28;19921;-66
2022/08/12 03:11:34;;;;;;;;;;;15.80;99.90;;;;;;5082779;28;19984;-66
2022/08/12 03:14:02;;;;;;;;;;;15.80;99.90;;;;;;5082522;28;20184;-66
2022/08/12 03:16:30;;;;;;;;;;;15.80;99.90;;;;;;5082957;28;19920;-66
2022/08/12 03:18:57;;;;;;;;;;;15.70;99.90;;;;;;5082790;28;19963;-66
2022/08/12 03:21:24;;;;;;;;;;;15.70;99.90;;;;;;5082658;28;19965;-66
2022/08/12 03:23:52;;;;;;;;;;;15.70;99.90;;;;;;5082300;28;19920;-66
2022/08/12 03:26:24;;;;;;;;;;;15.60;99.90;;;;;;5082558;28;20045;-66
2022/08/12 03:28:52;;;;;;;;;;;15.50;99.90;;;;;;5082683;28;20216;-66
2022/08/12 03:31:20;;;;;;;;;;;15.40;99.90;;;;;;5082688;28;20282;-66
2022/08/12 03:33:48;;;;;;;;;;;15.30;99.90;;;;;;5082423;28;19926;-66
2022/08/12 03:36:17;;;;;;;;;;;15.20;99.90;;;;;;5082344;28;19920;-66
2022/08/12 03:38:50;;;;;;;;;;;15.20;99.90;;;;;;5082442;28;19928;-67
2022/08/12 03:41:34;;;;;;;;;;;15.20;99.90;;;;;;5085201;28;20274;-67
2022/08/12 04:00:45;;;;;;;;;;;14.90;99.90;;;;;;5085862;28;20154;-67
2022/08/12 04:05:54;;;;;;;;;;;14.90;99.90;;;;;;5084505;28;19916;-67
2022/08/12 04:08:22;;;;;;;;;;;14.90;99.90;;;;;;5085850;28;20089;-67
2022/08/12 04:13:33;;;;;;;;;;;14.90;99.90;;;;;;5085482;28;20241;-67
2022/08/12 04:16:03;;;;;;;;;;;14.80;99.90;;;;;;5085483;28;19960;-66
2022/08/12 04:18:31;;;;;;;;;;;14.80;99.90;;;;;;5085149;28;19925;-66
2022/08/12 04:20:58;;;;;;;;;;;14.80;99.90;;;;;;5085320;28;19921;-66
2022/08/12 04:23:26;;;;;;;;;;;14.80;99.90;;;;;;5085347;28;19951;-66
2022/08/12 04:25:52;;;;;;;;;;;14.70;99.90;;;;;;5085307;28;19920;-67
2022/08/12 04:28:24;;;;;;;;;;;14.70;99.90;;;;;;5085392;28;19952;-66
2022/08/12 04:30:51;;;;;;;;;;;14.70;99.90;;;;;;5085092;28;19987;-66
2022/08/12 04:33:19;;;;;;;;;;;14.60;99.90;;;;;;5085073;28;19924;-67
2022/08/12 04:35:46;;;;;;;;;;;14.60;99.90;;;;;;5084988;28;19984;-66
2022/08/12 04:38:13;;;;;;;;;;;14.60;99.90;;;;;;5085101;28;19921;-67
2022/08/12 04:40:40;;;;;;;;;;;14.60;99.90;;;;;;5085016;28;19920;-67
2022/08/12 04:43:06;;;;;;;;;;;14.60;99.90;;;;;;5084589;28;19992;-66
2022/08/12 04:45:33;;;;;;;;;;;14.60;99.90;;;;;;5084799;28;19987;-66
2022/08/12 04:48:01;;;;;;;;;;;14.60;99.90;;;;;;5084845;28;19928;-67
2022/08/12 04:50:29;;;;;;;;;;;14.60;99.90;;;;;;5084695;28;20235;-66
2022/08/12 04:52:55;;;;;;;;;;;14.60;99.90;;;;;;5084690;28;20193;-67
2022/08/12 04:55:22;;;;;;;;;;;14.70;99.90;;;;;;5084623;28;19959;-67
2022/08/12 04:57:49;;;;;;;;;;;14.70;99.90;;;;;;5084737;28;19927;-66
2022/08/12 05:00:16;;;;;;;;;;;14.70;99.90;;;;;;5084952;28;19958;-66
2022/08/12 05:02:43;;;;;;;;;;;14.70;99.90;;;;;;5084532;28;19920;-67
2022/08/12 05:05:17;;;;;;;;;;;14.80;99.90;;;;;;5084267;28;19947;-67
2022/08/12 05:07:46;;;;;;;;;;;14.80;99.90;;;;;;5084418;28;19936;-67
2022/08/12 05:10:13;;;;;;;;;;;14.90;99.90;;;;;;5084489;28;19952;-67
2022/08/12 05:12:41;;;;;;;;;;;14.90;99.90;;;;;;5084133;28;19987;-67
2022/08/12 05:15:08;;;;;;;;;;;14.90;99.90;;;;;;5084469;28;19920;-67
2022/08/12 05:17:35;;;;;;;;;;;14.90;99.90;;;;;;5084220;28;19979;-67
2022/08/12 05:20:02;;;;;;;;;;;15.00;99.90;;;;;;5084276;28;19963;-67
2022/08/12 05:22:28;;;;;;;;;;;15.00;99.90;;;;;;5084100;28;19956;-67
2022/08/12 05:24:56;;;;;;;;;;;15.00;99.90;;;;;;5083898;28;19983;-67
2022/08/12 05:27:23;;;;;;;;;;;15.10;99.90;;;;;;5083934;28;20023;-67
2022/08/12 05:29:49;;;;;;;;;;;15.10;99.90;;;;;;5084170;28;19963;-67
2022/08/12 05:32:19;;;;;;;;;;;15.20;99.90;;;;;;5084027;28;19927;-67
2022/08/12 05:34:46;;;;;;;;;;;15.30;99.90;;;;;;5083746;28;19952;-67
2022/08/12 05:37:13;;;;;;;;;;;15.40;99.90;;;;;;5083955;28;19920;-67
2022/08/12 05:39:40;;;;;;;;;;;15.50;99.90;;;;;;5083884;28;19920;-67
2022/08/12 05:42:08;;;;;;;;;;;15.60;99.90;;;;;;5083944;28;19920;-67
2022/08/12 05:44:35;;;;;;;;;;;15.70;99.90;;;;;;5083813;28;19963;-67
2022/08/12 05:47:01;;;;;;;;;;;15.80;99.90;;;;;;5084018;28;19987;-67
2022/08/12 05:49:28;;;;;;;;;;;15.90;99.90;;;;;;5083774;28;19963;-67
2022/08/12 05:51:56;;;;;;;;;;;16.10;99.90;;;;;;5083679;28;19956;-67
2022/08/12 05:54:22;;;;;;;;;;;16.20;99.90;;;;;;5083251;28;19974;-67
2022/08/12 05:56:49;;;;;;;;;;;16.30;99.90;;;;;;5083411;28;19983;-67
2022/08/12 05:59:17;;;;;;;;;;;16.40;99.90;;;;;;5083772;28;19920;-67
2022/08/12 06:01:45;;;;;;;;;;;16.50;99.90;;;;;;5083495;28;19921;-67
2022/08/12 06:04:13;;;;;;;;;;;16.60;99.90;;;;;;5082767;28;19926;-67
2022/08/12 06:06:41;;;;;;;;;;;16.60;99.90;;;;;;5083700;28;19927;-67
2022/08/12 06:09:08;;;;;;;;;;;16.70;99.90;;;;;;5083377;28;19921;-67
2022/08/12 06:11:35;;;;;;;;;;;16.80;99.90;;;;;;5083508;28;19987;-68
2022/08/12 06:14:02;;;;;;;;;;;16.90;99.90;;;;;;5083121;28;19987;-68
2022/08/12 06:16:34;;;;;;;;;;;17.00;99.90;;;;;;5083252;28;19952;-68
2022/08/12 06:19:00;;;;;;;;;;;17.00;99.90;;;;;;5083426;28;19958;-68
2022/08/12 06:21:27;;;;;;;;;;;17.10;99.90;;;;;;5083203;28;20220;-67
2022/08/12 06:23:55;;;;;;;;;;;17.30;99.90;;;;;;5083346;28;19926;-67
2022/08/12 06:26:21;;;;;;;;;;;17.50;99.90;;;;;;5083219;28;20216;-67
2022/08/12 06:28:50;;;;;;;;;;;17.70;99.90;;;;;;5083263;28;19936;-68
2022/08/12 06:31:17;;;;;;;;;;;17.80;99.90;;;;;;5083077;28;20258;-68
2022/08/12 06:33:46;;;;;;;;;;;18.00;99.90;;;;;;5082839;28;19952;-68
2022/08/12 06:36:13;;;;;;;;;;;18.20;99.90;;;;;;5083188;28;19921;-68
2022/08/12 06:38:41;;;;;;;;;;;18.30;99.90;;;;;;5083198;28;19920;-68
2022/08/12 06:43:52;;;;;;;;;;;18.50;99.90;;;;;;5082995;28;19923;-68
2022/08/12 06:46:20;;;;;;;;;;;18.60;99.90;;;;;;5082963;28;19920;-68
2022/08/12 06:48:53;;;;;;;;;;;18.70;99.90;;;;;;5082928;28;19920;-68
2022/08/12 06:51:20;;;;;;;;;;;18.80;99.90;;;;;;5083087;28;19966;-68
2022/08/12 06:53:47;;;;;;;;;;;18.80;99.90;;;;;;5082818;28;19924;-68
2022/08/12 06:56:13;;;;;;;;;;;18.90;99.90;;;;;;5082989;28;19959;-68
2022/08/12 06:58:40;;;;;;;;;;;19.00;99.90;;;;;;5082934;28;19951;-68
2022/08/12 07:01:07;;;;;;;;;;;19.10;99.90;;;;;;5083041;28;19995;-68
2022/08/12 07:03:34;;;;;;;;;;;19.20;99.90;;;;;;5082658;28;20151;-68
2022/08/12 07:06:02;;;;;;;;;;;19.30;99.90;;;;;;5083318;28;19987;-68
2022/08/12 07:08:30;;;;;;;;;;;19.40;99.90;;;;;;5082905;28;19956;-68
2022/08/12 07:10:58;;;;;;;;;;;19.50;99.90;;;;;;5082573;28;20242;-68
2022/08/12 07:13:26;;;;;;;;;;;19.60;99.90;;;;;;5082574;28;19927;-68
2022/08/12 07:15:55;;;;;;;;;;;19.70;99.90;;;;;;5084729;28;19921;-68
2022/08/12 07:18:23;;;;;;;;;;;19.70;99.90;;;;;;5086677;28;19935;-68
2022/08/12 07:20:49;;;;;;;;;;;19.80;99.90;;;;;;5086918;28;19995;-68
2022/08/12 07:23:17;;;;;;;;;;;19.90;99.90;;;;;;5086421;28;19920;-68
2022/08/12 07:25:44;;;;;;;;;;;20.10;99.90;;;;;;5086385;28;19920;-68
2022/08/12 07:28:14;;;;;;;;;;;20.10;99.90;;;;;;5086395;28;20171;-68
2022/08/12 07:30:43;;;;;;;;;;;20.20;99.90;;;;;;5086078;28;19920;-68
2022/08/12 07:33:11;;;;;;;;;;;20.20;99.90;;;;;;5086101;28;19921;-68
2022/08/12 07:35:44;;;;;;;;;;;20.30;99.90;;;;;;5086341;28;20001;-68
2022/08/12 07:38:26;;;;;;;;;;;20.40;99.90;;;;;;5086094;28;19921;-68
2022/08/12 07:40:54;;;;;;;;;;;20.50;99.90;;;;;;5086406;28;19951;-68
2022/08/12 07:43:21;;;;;;;;;;;20.60;99.90;;;;;;5086063;28;19951;-68
2022/08/12 07:45:48;;;;;;;;;;;20.60;99.90;;;;;;5086444;28;19958;-68
2022/08/12 07:48:15;;;;;;;;;;;20.70;99.90;;;;;;5086058;28;19982;-68
2022/08/12 07:50:42;;;;;;;;;;;20.80;99.70;;;;;;5085906;28;19943;-68
2022/08/12 07:53:09;;;;;;;;;;;20.80;99.90;;;;;;5085601;28;19991;-68
2022/08/12 07:55:37;;;;;;;;;;;20.90;99.80;;;;;;5085959;28;19920;-68
2022/08/12 07:58:04;;;;;;;;;;;21.00;99.50;;;;;;5085917;28;19988;-68
2022/08/12 08:00:33;;;;;;;;;;;21.10;99.00;;;;;;5085692;28;19920;-67
2022/08/12 08:02:59;;;;;;;;;;;21.10;99.10;;;;;;5085396;28;19958;-68
2022/08/12 08:05:27;;;;;;;;;;;21.20;99.20;;;;;;5085524;28;20208;-68
2022/08/12 08:08:00;;;;;;;;;;;21.20;99.10;;;;;;5085404;28;20204;-68
2022/08/12 08:10:27;;;;;;;;;;;21.30;98.70;;;;;;5085856;28;19963;-68
2022/08/12 08:12:55;;;;;;;;;;;21.30;98.90;;;;;;5085143;28;19928;-68
2022/08/12 08:15:25;;;;;;;;;;;21.40;99.10;;;;;;5085572;28;20124;-68
2022/08/12 08:17:55;;;;;;;;;;;21.50;98.50;;;;;;5085281;28;19952;-68
2022/08/12 08:20:23;;;;;;;;;;;21.70;98.00;;;;;;5085752;28;19920;-68
2022/08/12 08:22:50;;;;;;;;;;;21.80;97.10;;;;;;5085027;28;19966;-68
2022/08/12 08:25:19;;;;;;;;;;;21.90;97.50;;;;;;5085321;28;19942;-68
2022/08/12 08:27:46;;;;;;;;;;;22.00;96.70;;;;;;5084943;28;19920;-68
2022/08/12 08:30:16;;;;;;;;;;;22.00;96.40;;;;;;5085394;28;19927;-68
2022/08/12 08:32:42;;;;;;;;;;;22.10;96.20;;;;;;5084976;28;20225;-68
2022/08/12 08:35:13;;;;;;;;;;;22.20;96.00;;;;;;5085026;28;20207;-68
2022/08/12 08:37:42;;;;;;;;;;;22.30;95.50;;;;;;5085095;28;20279;-68
2022/08/12 08:42:53;;;;;;;;;;;22.60;95.20;;;;;;5084738;28;19996;-67
2022/08/12 08:45:21;;;;;;;;;;;22.70;95.00;;;;;;5084952;28;19927;-67
2022/08/12 08:47:48;;;;;;;;;;;22.80;94.80;;;;;;5084946;28;19987;-68
2022/08/12 08:50:15;;;;;;;;;;;22.80;94.50;;;;;;5084808;28;20239;-67
2022/08/12 08:52:42;;;;;;;;;;;22.90;93.50;;;;;;5084804;28;20231;-67
2022/08/12 08:55:09;;;;;;;;;;;23.00;93.20;;;;;;5084751;28;19983;-67
2022/08/12 08:57:36;;;;;;;;;;;23.10;93.10;;;;;;5084652;28;19947;-67
2022/08/12 09:00:03;;;;;;;;;;;23.10;93.20;;;;;;5084649;28;19992;-67
2022/08/12 09:02:31;;;;;;;;;;;23.10;93.20;;;;;;5084673;28;20292;-67
2022/08/12 09:04:57;;;;;;;;;;;23.20;93.10;;;;;;5084506;28;19920;-67
2022/08/12 09:07:27;;;;;;;;;;;23.30;92.50;;;;;;5084396;28;19992;-67
2022/08/12 09:09:56;;;;;;;;;;;23.40;92.40;;;;;;5084290;28;19920;-67
2022/08/12 09:15:07;;;;;;;;;;;23.50;91.80;;;;;;5084360;28;20262;-67
2022/08/12 09:17:37;;;;;;;;;;;23.50;91.10;;;;;;5084370;28;19927;-67
2022/08/12 09:20:04;;;;;;;;;;;23.60;91.40;;;;;;5084273;28;19921;-68
2022/08/12 09:22:31;;;;;;;;;;;23.70;90.80;;;;;;5084115;28;19921;-68
2022/08/12 09:24:59;;;;;;;;;;;23.80;90.40;;;;;;5084257;28;19921;-67
2022/08/12 09:27:26;;;;;;;;;;;23.90;90.40;;;;;;5084276;28;19921;-67
2022/08/12 09:29:52;;;;;;;;;;;23.90;90.70;;;;;;5084074;28;19927;-67
2022/08/12 09:32:20;;;;;;;;;;;24.00;90.10;;;;;;5084079;28;20155;-67
2022/08/12 09:34:48;;;;;;;;;;;24.00;90.60;;;;;;5083513;28;19921;-67
2022/08/12 09:37:14;;;;;;;;;;;24.10;90.30;;;;;;5083592;28;19987;-67
2022/08/12 09:39:41;;;;;;;;;;;24.10;90.20;;;;;;5083691;28;19952;-67
2022/08/12 09:47:36;;;;;;;;;;;24.30;90.10;;;;;;5083791;28;19954;-67
2022/08/12 09:50:05;;;;;;;;;;;24.40;89.30;;;;;;5083762;28;20048;-67
2022/08/12 09:52:31;;;;;;;;;;;24.60;89.70;;;;;;5083607;28;19952;-68
2022/08/12 09:54:58;;;;;;;;;;;24.70;88.90;;;;;;5084031;28;19958;-68
2022/08/12 09:57:25;;;;;;;;;;;24.70;88.80;;;;;;5083595;28;20200;-68
2022/08/12 09:59:51;;;;;;;;;;;24.70;88.00;;;;;;5083691;28;19927;-68
2022/08/12 10:02:18;;;;;;;;;;;24.70;87.40;;;;;;5083639;28;19928;-68
2022/08/12 10:04:47;;;;;;;;;;;24.70;87.80;;;;;;5083395;28;19956;-67
2022/08/12 10:07:15;;;;;;;;;;;24.70;87.80;;;;;;5083519;28;19921;-68
2022/08/12 10:09:42;;;;;;;;;;;24.70;88.00;;;;;;5083638;28;19921;-67
2022/08/12 10:14:53;;;;;;;;;;;24.80;88.60;;;;;;5083286;28;20227;-67
2022/08/12 10:17:21;;;;;;;;;;;25.00;87.80;;;;;;5083334;28;20219;-68
2022/08/12 10:19:48;;;;;;;;;;;25.20;85.70;;;;;;5083761;28;19920;-67
2022/08/12 10:22:16;;;;;;;;;;;25.30;84.80;;;;;;5083324;28;19928;-67
2022/08/12 10:24:44;;;;;;;;;;;25.30;85.60;;;;;;5083058;28;19987;-68
2022/08/12 10:30:10;;;;;;;;;;;25.20;84.50;;;;;;5061364;28;19916;-67
2022/08/12 10:32:36;;;;;;;;;;;25.00;84.40;;;;;;5061170;28;19921;-67
2022/08/12 10:35:03;;;;;;;;;;;24.90;85.40;;;;;;5070667;28;20116;-67
2022/08/12 10:37:31;;;;;;;;;;;25.00;86.00;;;;;;5082951;28;19926;-67
2022/08/12 10:39:58;;;;;;;;;;;25.00;87.20;;;;;;5083284;28;19988;-67
2022/08/12 10:45:09;;;;;;;;;;;25.40;86.80;;;;;;5083145;28;19953;-67
2022/08/12 10:47:36;;;;;;;;;;;25.60;84.50;;;;;;5083089;28;19952;-67
2022/08/12 10:50:06;;;;;;;;;;;25.80;81.60;;;;;;5085515;28;19991;-67
2022/08/12 10:52:37;;;;;;;;;;;26.10;82.50;;;;;;5087137;28;19921;-67
2022/08/12 10:55:04;;;;;;;;;;;26.30;82.00;;;;;;5087000;28;19966;-67
2022/08/12 10:57:31;;;;;;;;;;;26.40;82.60;;;;;;5087047;28;19920;-68
2022/08/12 10:59:58;;;;;;;;;;;26.40;82.50;;;;;;5086820;28;19971;-67
2022/08/12 11:02:26;;;;;;;;;;;26.10;82.40;;;;;;5086656;28;19987;-68
2022/08/12 11:04:56;;;;;;;;;;;26.20;83.10;;;;;;5086728;28;19920;-67
2022/08/12 11:07:23;;;;;;;;;;;26.30;81.50;;;;;;5086890;28;19946;-67
2022/08/12 11:09:51;;;;;;;;;;;26.40;81.00;;;;;;5086762;28;19921;-67
2022/08/12 11:12:18;;;;;;;;;;;26.30;81.80;;;;;;5086616;28;19920;-68
2022/08/12 11:14:45;;;;;;;;;;;26.10;81.40;;;;;;5086343;28;19928;-67
2022/08/12 11:17:13;;;;;;;;;;;26.00;81.20;;;;;;5086541;28;19927;-67
2022/08/12 11:19:40;;;;;;;;;;;25.90;81.00;;;;;;5086675;28;19920;-67
2022/08/12 11:22:08;;;;;;;;;;;25.90;81.00;;;;;;5086806;28;19984;-67
2022/08/12 11:24:35;;;;;;;;;;;26.10;80.90;;;;;;5086266;28;19963;-67
2022/08/12 11:27:05;;;;;;;;;;;26.20;80.10;;;;;;5086389;28;19980;-67
2022/08/12 11:29:32;;;;;;;;;;;26.10;79.80;;;;;;5086782;28;19924;-67
2022/08/12 11:31:58;;;;;;;;;;;26.10;79.70;;;;;;5086442;28;19968;-68
2022/08/12 11:34:25;;;;;;;;;;;26.30;80.50;;;;;;5086013;28;19956;-67
2022/08/12 11:36:52;;;;;;;;;;;26.40;78.70;;;;;;5086171;28;20153;-67
2022/08/12 11:39:19;;;;;;;;;;;26.60;79.20;;;;;;5086350;28;20176;-67
2022/08/12 11:41:46;;;;;;;;;;;26.90;78.20;;;;;;5086585;28;19927;-67
2022/08/12 11:44:14;;;;;;;;;;;26.90;77.70;;;;;;5085852;28;19987;-68
2022/08/12 11:46:41;;;;;;;;;;;27.00;77.50;;;;;;5086292;28;19985;-68
2022/08/12 11:49:08;;;;;;;;;;;27.10;75.60;;;;;;5086091;28;19926;-67
2022/08/12 11:51:35;;;;;;;;;;;27.20;76.40;;;;;;5086092;28;19979;-68
2022/08/12 11:54:02;;;;;;;;;;;27.30;76.00;;;;;;5085608;28;20295;-67
2022/08/12 11:56:29;;;;;;;;;;;27.50;77.10;;;;;;5085815;28;20112;-67
2022/08/12 11:58:56;;;;;;;;;;;27.70;75.20;;;;;;5085707;28;19970;-68
2022/08/12 12:01:24;;;;;;;;;;;28.00;74.80;;;;;;5085086;28;19920;-68
2022/08/12 12:03:50;;;;;;;;;;;28.20;75.20;;;;;;5085682;28;19920;-68
2022/08/12 12:06:19;;;;;;;;;;;28.20;74.50;;;;;;5085835;28;19927;-68
2022/08/12 12:08:46;;;;;;;;;;;28.20;73.20;;;;;;5085835;28;19963;-68
2022/08/12 12:11:13;;;;;;;;;;;28.10;73.20;;;;;;5085500;28;19984;-68
2022/08/12 12:13:40;;;;;;;;;;;28.20;72.10;;;;;;5085350;28;19935;-67
2022/08/12 12:16:07;;;;;;;;;;;28.10;73.00;;;;;;5085860;28;19963;-68
2022/08/12 12:18:35;;;;;;;;;;;27.90;73.20;;;;;;5085563;28;19921;-67
2022/08/12 12:21:03;;;;;;;;;;;27.80;72.70;;;;;;5085668;28;20227;-68
2022/08/12 12:23:30;;;;;;;;;;;27.90;73.10;;;;;;5085065;28;20263;-68
2022/08/12 12:25:57;;;;;;;;;;;28.10;71.70;;;;;;5085096;28;19926;-68
2022/08/12 12:28:24;;;;;;;;;;;28.30;70.50;;;;;;5085589;28;20163;-68
2022/08/12 12:30:50;;;;;;;;;;;28.40;70.80;;;;;;5085486;28;20279;-68
2022/08/12 12:33:19;;;;;;;;;;;28.70;70.70;;;;;;5084984;28;19920;-67
2022/08/12 12:35:47;;;;;;;;;;;28.80;69.30;;;;;;5085166;28;20101;-68
2022/08/12 12:38:14;;;;;;;;;;;29.00;69.70;;;;;;5085028;28;19984;-68
2022/08/12 12:40:42;;;;;;;;;;;29.00;69.80;;;;;;5085266;28;19928;-68
2022/08/12 12:43:09;;;;;;;;;;;28.90;69.30;;;;;;5084919;28;19960;-68
2022/08/12 12:45:37;;;;;;;;;;;28.70;69.80;;;;;;5085022;28;19920;-69
2022/08/12 12:48:04;;;;;;;;;;;28.60;69.70;;;;;;5084996;28;19983;-67
2022/08/12 12:50:32;;;;;;;;;;;28.70;70.00;;;;;;5084937;28;19971;-68
2022/08/12 12:53:00;;;;;;;;;;;28.90;71.10;;;;;;5084494;28;20093;-68
2022/08/12 12:55:28;;;;;;;;;;;29.20;69.60;;;;;;5085004;28;20161;-68
2022/08/12 12:57:55;;;;;;;;;;;29.20;69.60;;;;;;5084632;28;20201;-68
2022/08/12 13:00:23;;;;;;;;;;;29.00;69.40;;;;;;5084781;28;20155;-68
2022/08/12 13:02:52;;;;;;;;;;;28.90;69.70;;;;;;5084362;28;19987;-68
2022/08/12 13:05:24;;;;;;;;;;;29.00;70.60;;;;;;5084496;28;20123;-68
2022/08/12 13:07:50;;;;;;;;;;;29.10;68.80;;;;;;5084366;28;19924;-68
2022/08/12 13:10:18;;;;;;;;;;;29.10;68.60;;;;;;5084679;28;19963;-68
2022/08/12 13:12:46;;;;;;;;;;;29.20;69.40;;;;;;5084171;28;20097;-68
2022/08/12 13:15:14;;;;;;;;;;;29.50;66.80;;;;;;5084609;28;19927;-68
2022/08/12 13:17:42;;;;;;;;;;;29.70;66.20;;;;;;5084366;28;19920;-68
2022/08/12 13:20:09;;;;;;;;;;;29.90;66.00;;;;;;5084179;28;19928;-68
2022/08/12 13:22:35;;;;;;;;;;;29.90;62.90;;;;;;5083911;28;19920;-68
2022/08/12 13:25:02;;;;;;;;;;;29.30;62.40;;;;;;5084064;28;19983;-68
2022/08/12 13:27:35;;;;;;;;;;;29.00;62.00;;;;;;5084352;28;19970;-68
2022/08/12 13:30:03;;;;;;;;;;;28.80;63.00;;;;;;5084297;28;19948;-68
2022/08/12 13:32:29;;;;;;;;;;;28.80;64.00;;;;;;5084036;28;20208;-68
2022/08/12 13:34:56;;;;;;;;;;;28.90;64.50;;;;;;5084182;28;20094;-67
2022/08/12 13:37:25;;;;;;;;;;;29.10;64.90;;;;;;5084029;28;19942;-68
2022/08/12 13:39:52;;;;;;;;;;;29.40;63.90;;;;;;5084225;28;19920;-68
2022/08/12 13:42:19;;;;;;;;;;;29.60;64.00;;;;;;5084050;28;19920;-68
2022/08/12 13:44:51;;;;;;;;;;;29.90;62.70;;;;;;5083575;28;19927;-68
2022/08/12 13:47:19;;;;;;;;;;;30.00;61.70;;;;;;5083568;28;19921;-67
2022/08/12 13:49:47;;;;;;;;;;;29.90;62.80;;;;;;5083892;28;19987;-68
2022/08/12 13:52:14;;;;;;;;;;;29.80;62.60;;;;;;5083819;28;19928;-68
2022/08/12 13:54:41;;;;;;;;;;;29.80;62.90;;;;;;5083294;28;19987;-67
2022/08/12 13:57:08;;;;;;;;;;;29.90;63.20;;;;;;5083560;28;19920;-68
2022/08/12 13:59:35;;;;;;;;;;;30.00;63.40;;;;;;5083541;28;20101;-68
2022/08/12 14:02:04;;;;;;;;;;;30.10;62.60;;;;;;5083539;28;20267;-68
2022/08/12 14:04:31;;;;;;;;;;;30.30;62.90;;;;;;5083257;28;19921;-68
2022/08/12 14:07:01;;;;;;;;;;;30.40;62.10;;;;;;5083449;28;19920;-68
2022/08/12 14:09:28;;;;;;;;;;;30.00;60.40;;;;;;5084036;28;19963;-68
2022/08/12 14:11:55;;;;;;;;;;;29.50;61.20;;;;;;5083558;28;19924;-68
2022/08/12 14:14:21;;;;;;;;;;;29.10;62.40;;;;;;5083154;28;19928;-68
2022/08/12 14:16:48;;;;;;;;;;;29.00;63.80;;;;;;5083380;28;19927;-68
2022/08/12 14:19:16;;;;;;;;;;;29.10;64.00;;;;;;5083437;28;20212;-67
2022/08/12 14:21:43;;;;;;;;;;;29.20;63.50;;;;;;5083340;28;19927;-67
2022/08/12 14:24:09;;;;;;;;;;;29.40;62.00;;;;;;5082509;28;19921;-67
2022/08/12 14:26:38;;;;;;;;;;;29.80;63.00;;;;;;5083211;28;19921;-68
2022/08/12 14:29:05;;;;;;;;;;;30.10;62.20;;;;;;5083335;28;19928;-68
2022/08/12 14:31:32;;;;;;;;;;;30.20;61.90;;;;;;5082992;28;19927;-68
2022/08/12 14:33:59;;;;;;;;;;;29.90;62.60;;;;;;5082838;28;19991;-68
2022/08/12 14:36:27;;;;;;;;;;;30.10;64.60;;;;;;5096027;22;19943;-71
2022/08/12 14:38:54;;;;;;;;;;;30.10;62.40;;;;;;5083282;28;19921;-71
2022/08/12 14:41:22;;;;;;;;;;;29.90;62.30;;;;;;5083180;28;19920;-71
2022/08/12 14:43:50;;;;;;;;;;;29.50;62.70;;;;;;5083040;28;19966;-71
2022/08/12 14:46:18;;;;;;;;;;;29.30;63.50;;;;;;5083284;28;20143;-70
2022/08/12 14:48:45;;;;;;;;;;;29.50;63.90;;;;;;5082930;28;20307;-71
2022/08/12 14:51:12;;;;;;;;;;;29.60;63.40;;;;;;5083100;28;19983;-71
2022/08/12 14:53:40;;;;;;;;;;;29.50;63.30;;;;;;5082430;28;19975;-71
2022/08/12 14:56:07;;;;;;;;;;;29.70;64.10;;;;;;5082883;28;19920;-70
2022/08/12 14:58:34;;;;;;;;;;;30.10;64.20;;;;;;5083114;28;19920;-71
2022/08/12 15:03:45;;;;;;;;;;;30.80;62.20;;;;;;5082676;28;19950;-71
2022/08/12 15:06:18;;;;;;;;;;;30.90;61.40;;;;;;5083201;28;19920;-71
2022/08/12 15:08:46;;;;;;;;;;;30.70;61.00;;;;;;5083438;28;19927;-72
2022/08/12 15:11:15;;;;;;;;;;;30.70;61.70;;;;;;5083202;28;19927;-72
2022/08/12 15:13:44;;;;;;;;;;;30.70;61.00;;;;;;5083589;28;19991;-71
2022/08/12 15:16:11;;;;;;;;;;;30.70;61.20;;;;;;5083689;28;19943;-72
2022/08/12 15:18:38;;;;;;;;;;;30.60;60.60;;;;;;5083044;28;19921;-72
2022/08/12 15:21:05;;;;;;;;;;;30.60;60.90;;;;;;5082649;28;19996;-72
2022/08/12 15:23:33;;;;;;;;;;;30.50;61.60;;;;;;5082653;28;19987;-72
2022/08/12 15:26:02;;;;;;;;;;;30.30;61.90;;;;;;5082862;28;19988;-72
2022/08/12 15:28:29;;;;;;;;;;;30.10;62.50;;;;;;5082765;28;19921;-72
2022/08/12 15:30:56;;;;;;;;;;;30.10;63.10;;;;;;5083137;28;20019;-70
2022/08/12 15:33:24;;;;;;;;;;;30.10;62.70;;;;;;5082278;28;19943;-70
2022/08/12 15:35:50;;;;;;;;;;;30.20;62.30;;;;;;5082879;28;19924;-71
2022/08/12 15:38:18;;;;;;;;;;;29.90;61.80;;;;;;5086310;28;20246;-72
2022/08/12 15:40:48;;;;;;;;;;;29.50;62.40;;;;;;5086231;28;19920;-69
2022/08/12 15:43:16;;;;;;;;;;;29.30;62.80;;;;;;5085965;28;19920;-70
2022/08/12 15:45:44;;;;;;;;;;;29.00;62.30;;;;;;5085988;28;19952;-69
2022/08/12 15:48:11;;;;;;;;;;;28.70;62.70;;;;;;5086001;28;19927;-70
2022/08/12 15:50:38;;;;;;;;;;;28.60;63.70;;;;;;5086358;28;19920;-70
2022/08/12 15:53:06;;;;;;;;;;;28.60;64.10;;;;;;5085725;28;19921;-70
2022/08/12 15:55:33;;;;;;;;;;;28.90;64.40;;;;;;5085795;28;20084;-70
2022/08/12 15:58:00;;;;;;;;;;;29.20;64.10;;;;;;5085974;28;19921;-70
2022/08/12 16:00:30;;;;;;;;;;;29.10;63.70;;;;;;5085936;28;19921;-71
2022/08/12 16:02:57;;;;;;;;;;;28.90;64.40;;;;;;5085885;28;19995;-70
2022/08/12 16:05:24;;;;;;;;;;;28.80;65.70;;;;;;5085813;28;19943;-70